sensor_id;sensor_type;location;lat;lon;timestamp;P1;durP1;ratioP1;P2;durP2;ratioP2
7647;SDS011;3866;48.020;11.720;2022-09-16T00:01:11;5.20;;;4.70;;
7647;SDS011;3866;48.020;11.720;2022-09-16T00:03:38;5.43;;;4.50;;
7647;SDS011;3866;48.020;11.720;2022-09-16T00:06:06;5.70;;;4.23;;
7647;SDS011;3866;48.020;11.720;2022-09-16T00:08:41;7.23;;;4.73;;
7647;SDS011;3866;48.020;11.720;2022-09-16T00:11:11;5.17;;;4.67;;
7647;SDS011;3866;48.020;11.720;2022-09-16T00:13:38;6.37;;;4.90;;
7647;SDS011;3866;48.020;11.720;2022-09-16T00:16:06;6.90;;;4.60;;
7647;SDS011;3866;48.020;11.720;2022-09-16T00:18:34;6.53;;;4.60;;
7647;SDS011;3866;48.020;11.720;2022-09-16T00:21:01;6.93;;;4.60;;
7647;SDS011;3866;48.020;11.720;2022-09-16T00:23:32;5.83;;;5.23;;
7647;SDS011;3866;48.020;11.720;2022-09-16T00:25:59;5.07;;;4.57;;
7647;SDS011;3866;48.020;11.720;2022-09-16T00:28:27;5.43;;;4.83;;
7647;SDS011;3866;48.020;11.720;2022-09-16T00:30:57;4.60;;;4.20;;
7647;SDS011;3866;48.020;11.720;2022-09-16T00:33:24;9.23;;;4.60;;
7647;SDS011;3866;48.020;11.720;2022-09-16T00:35:51;4.67;;;4.27;;
7647;SDS011;3866;48.020;11.720;2022-09-16T00:38:18;6.23;;;4.70;;
7647;SDS011;3866;48.020;11.720;2022-09-16T00:40:46;7.43;;;4.53;;
7647;SDS011;3866;48.020;11.720;2022-09-16T00:43:15;5.70;;;4.70;;
7647;SDS011;3866;48.020;11.720;2022-09-16T00:45:45;5.53;;;4.87;;
7647;SDS011;3866;48.020;11.720;2022-09-16T00:48:18;5.73;;;4.30;;
7647;SDS011;3866;48.020;11.720;2022-09-16T00:50:48;4.50;;;4.10;;
7647;SDS011;3866;48.020;11.720;2022-09-16T00:53:18;4.70;;;4.30;;
7647;SDS011;3866;48.020;11.720;2022-09-16T00:55:48;5.97;;;5.37;;
7647;SDS011;3866;48.020;11.720;2022-09-16T00:58:17;5.60;;;4.60;;
7647;SDS011;3866;48.020;11.720;2022-09-16T01:00:51;5.13;;;4.63;;
7647;SDS011;3866;48.020;11.720;2022-09-16T01:03:18;4.67;;;3.83;;
7647;SDS011;3866;48.020;11.720;2022-09-16T01:05:46;4.13;;;3.73;;
7647;SDS011;3866;48.020;11.720;2022-09-16T01:08:14;5.10;;;4.60;;
7647;SDS011;3866;48.020;11.720;2022-09-16T01:10:41;5.23;;;4.67;;
7647;SDS011;3866;48.020;11.720;2022-09-16T01:13:08;6.83;;;4.40;;
7647;SDS011;3866;48.020;11.720;2022-09-16T01:15:39;4.57;;;4.10;;
7647;SDS011;3866;48.020;11.720;2022-09-16T01:18:14;4.47;;;4.07;;
7647;SDS011;3866;48.020;11.720;2022-09-16T01:20:53;4.70;;;4.27;;
7647;SDS011;3866;48.020;11.720;2022-09-16T01:23:52;6.20;;;4.33;;
7647;SDS011;3866;48.020;11.720;2022-09-16T01:26:45;4.63;;;4.23;;
7647;SDS011;3866;48.020;11.720;2022-09-16T01:32:42;7.07;;;4.33;;
7647;SDS011;3866;48.020;11.720;2022-09-16T01:35:21;5.40;;;4.43;;
7647;SDS011;3866;48.020;11.720;2022-09-16T01:37:54;5.30;;;4.50;;
7647;SDS011;3866;48.020;11.720;2022-09-16T01:40:30;4.33;;;3.90;;
7647;SDS011;3866;48.020;11.720;2022-09-16T01:43:07;6.97;;;4.20;;
7647;SDS011;3866;48.020;11.720;2022-09-16T01:45:46;5.33;;;4.70;;
7647;SDS011;3866;48.020;11.720;2022-09-16T01:48:20;6.20;;;5.00;;
7647;SDS011;3866;48.020;11.720;2022-09-16T01:50:54;6.17;;;5.57;;
7647;SDS011;3866;48.020;11.720;2022-09-16T01:53:26;4.73;;;4.00;;
7647;SDS011;3866;48.020;11.720;2022-09-16T01:55:59;5.43;;;4.93;;
7647;SDS011;3866;48.020;11.720;2022-09-16T01:58:32;5.43;;;4.93;;
7647;SDS011;3866;48.020;11.720;2022-09-16T02:01:05;6.20;;;4.97;;
7647;SDS011;3866;48.020;11.720;2022-09-16T02:03:39;6.17;;;4.37;;
7647;SDS011;3866;48.020;11.720;2022-09-16T02:06:09;6.10;;;4.50;;
7647;SDS011;3866;48.020;11.720;2022-09-16T02:08:41;9.63;;;4.87;;
7647;SDS011;3866;48.020;11.720;2022-09-16T02:11:12;7.10;;;4.70;;
7647;SDS011;3866;48.020;11.720;2022-09-16T02:13:43;4.63;;;4.23;;
7647;SDS011;3866;48.020;11.720;2022-09-16T02:16:13;4.80;;;4.30;;
7647;SDS011;3866;48.020;11.720;2022-09-16T02:18:45;6.73;;;4.77;;
7647;SDS011;3866;48.020;11.720;2022-09-16T02:21:16;5.87;;;4.37;;
7647;SDS011;3866;48.020;11.720;2022-09-16T02:23:45;6.43;;;4.57;;
7647;SDS011;3866;48.020;11.720;2022-09-16T02:26:16;5.27;;;4.57;;
7647;SDS011;3866;48.020;11.720;2022-09-16T02:28:47;5.43;;;4.90;;
7647;SDS011;3866;48.020;11.720;2022-09-16T02:31:15;5.67;;;4.87;;
7647;SDS011;3866;48.020;11.720;2022-09-16T02:33:49;5.87;;;5.27;;
7647;SDS011;3866;48.020;11.720;2022-09-16T02:36:19;4.83;;;4.37;;
7647;SDS011;3866;48.020;11.720;2022-09-16T02:38:49;6.93;;;5.43;;
7647;SDS011;3866;48.020;11.720;2022-09-16T02:41:21;6.63;;;6.03;;
7647;SDS011;3866;48.020;11.720;2022-09-16T02:43:48;7.10;;;5.77;;
7647;SDS011;3866;48.020;11.720;2022-09-16T02:46:18;6.37;;;5.33;;
7647;SDS011;3866;48.020;11.720;2022-09-16T02:48:55;7.30;;;5.57;;
7647;SDS011;3866;48.020;11.720;2022-09-16T02:51:28;5.10;;;4.57;;
7647;SDS011;3866;48.020;11.720;2022-09-16T02:54:01;6.17;;;5.13;;
7647;SDS011;3866;48.020;11.720;2022-09-16T02:56:34;5.43;;;4.90;;
7647;SDS011;3866;48.020;11.720;2022-09-16T02:59:04;5.57;;;5.07;;
7647;SDS011;3866;48.020;11.720;2022-09-16T03:01:35;5.77;;;5.27;;
7647;SDS011;3866;48.020;11.720;2022-09-16T03:04:06;5.23;;;4.83;;
7647;SDS011;3866;48.020;11.720;2022-09-16T03:06:33;6.17;;;5.37;;
7647;SDS011;3866;48.020;11.720;2022-09-16T03:09:02;7.70;;;5.23;;
7647;SDS011;3866;48.020;11.720;2022-09-16T03:11:35;6.40;;;5.07;;
7647;SDS011;3866;48.020;11.720;2022-09-16T03:20:18;6.90;;;4.90;;
7647;SDS011;3866;48.020;11.720;2022-09-16T03:22:54;7.87;;;5.70;;
7647;SDS011;3866;48.020;11.720;2022-09-16T03:25:30;7.03;;;5.53;;
7647;SDS011;3866;48.020;11.720;2022-09-16T03:28:04;5.73;;;5.20;;
7647;SDS011;3866;48.020;11.720;2022-09-16T03:30:36;6.80;;;5.87;;
7647;SDS011;3866;48.020;11.720;2022-09-16T03:33:09;7.60;;;6.43;;
7647;SDS011;3866;48.020;11.720;2022-09-16T03:35:46;6.63;;;5.93;;
7647;SDS011;3866;48.020;11.720;2022-09-16T03:38:15;7.00;;;6.30;;
7647;SDS011;3866;48.020;11.720;2022-09-16T03:40:44;7.33;;;5.57;;
7647;SDS011;3866;48.020;11.720;2022-09-16T03:43:14;7.33;;;6.50;;
7647;SDS011;3866;48.020;11.720;2022-09-16T03:45:42;10.30;;;7.57;;
7647;SDS011;3866;48.020;11.720;2022-09-16T03:48:10;9.73;;;7.23;;
7647;SDS011;3866;48.020;11.720;2022-09-16T03:50:38;9.30;;;6.73;;
7647;SDS011;3866;48.020;11.720;2022-09-16T03:53:06;9.13;;;7.10;;
7647;SDS011;3866;48.020;11.720;2022-09-16T03:55:33;7.57;;;6.77;;
7647;SDS011;3866;48.020;11.720;2022-09-16T03:58:00;9.57;;;7.40;;
7647;SDS011;3866;48.020;11.720;2022-09-16T04:00:27;9.20;;;7.60;;
7647;SDS011;3866;48.020;11.720;2022-09-16T04:02:54;7.90;;;7.10;;
7647;SDS011;3866;48.020;11.720;2022-09-16T04:05:21;10.13;;;6.93;;
7647;SDS011;3866;48.020;11.720;2022-09-16T04:07:48;10.33;;;7.67;;
7647;SDS011;3866;48.020;11.720;2022-09-16T04:10:17;8.33;;;7.20;;
7647;SDS011;3866;48.020;11.720;2022-09-16T04:12:44;10.87;;;7.13;;
7647;SDS011;3866;48.020;11.720;2022-09-16T04:15:11;9.27;;;7.10;;
7647;SDS011;3866;48.020;11.720;2022-09-16T04:17:38;11.13;;;7.60;;
7647;SDS011;3866;48.020;11.720;2022-09-16T04:20:05;8.53;;;7.20;;
7647;SDS011;3866;48.020;11.720;2022-09-16T04:22:33;8.73;;;6.60;;
7647;SDS011;3866;48.020;11.720;2022-09-16T04:25:00;10.40;;;8.13;;
7647;SDS011;3866;48.020;11.720;2022-09-16T04:27:29;9.70;;;8.00;;
7647;SDS011;3866;48.020;11.720;2022-09-16T04:29:56;9.87;;;7.53;;
7647;SDS011;3866;48.020;11.720;2022-09-16T04:32:23;10.47;;;7.40;;
7647;SDS011;3866;48.020;11.720;2022-09-16T04:34:50;8.37;;;7.53;;
7647;SDS011;3866;48.020;11.720;2022-09-16T04:37:16;10.03;;;8.00;;
7647;SDS011;3866;48.020;11.720;2022-09-16T04:39:43;9.47;;;7.53;;
7647;SDS011;3866;48.020;11.720;2022-09-16T04:42:11;10.37;;;7.87;;
7647;SDS011;3866;48.020;11.720;2022-09-16T04:44:39;8.93;;;7.97;;
7647;SDS011;3866;48.020;11.720;2022-09-16T04:47:06;9.23;;;8.07;;
7647;SDS011;3866;48.020;11.720;2022-09-16T04:49:33;11.53;;;7.80;;
7647;SDS011;3866;48.020;11.720;2022-09-16T04:52:00;9.47;;;7.27;;
7647;SDS011;3866;48.020;11.720;2022-09-16T04:54:27;9.27;;;7.63;;
7647;SDS011;3866;48.020;11.720;2022-09-16T04:56:53;7.60;;;6.80;;
7647;SDS011;3866;48.020;11.720;2022-09-16T04:59:21;10.17;;;8.33;;
7647;SDS011;3866;48.020;11.720;2022-09-16T05:01:49;8.00;;;6.83;;
7647;SDS011;3866;48.020;11.720;2022-09-16T05:04:16;9.67;;;7.47;;
7647;SDS011;3866;48.020;11.720;2022-09-16T05:06:43;9.73;;;7.33;;
7647;SDS011;3866;48.020;11.720;2022-09-16T05:09:11;10.37;;;7.60;;
7647;SDS011;3866;48.020;11.720;2022-09-16T05:11:38;9.50;;;7.47;;
7647;SDS011;3866;48.020;11.720;2022-09-16T05:14:06;10.17;;;7.83;;
7647;SDS011;3866;48.020;11.720;2022-09-16T05:16:35;9.10;;;8.03;;
7647;SDS011;3866;48.020;11.720;2022-09-16T05:19:03;9.60;;;7.03;;
7647;SDS011;3866;48.020;11.720;2022-09-16T05:21:31;9.20;;;7.73;;
7647;SDS011;3866;48.020;11.720;2022-09-16T05:24:00;9.90;;;7.77;;
7647;SDS011;3866;48.020;11.720;2022-09-16T05:26:29;11.23;;;7.93;;
7647;SDS011;3866;48.020;11.720;2022-09-16T05:28:59;10.73;;;7.93;;
7647;SDS011;3866;48.020;11.720;2022-09-16T05:31:28;10.47;;;7.70;;
7647;SDS011;3866;48.020;11.720;2022-09-16T05:33:57;8.23;;;7.43;;
7647;SDS011;3866;48.020;11.720;2022-09-16T05:36:26;10.40;;;8.03;;
7647;SDS011;3866;48.020;11.720;2022-09-16T05:38:55;9.20;;;7.67;;
7647;SDS011;3866;48.020;11.720;2022-09-16T05:41:22;8.23;;;7.40;;
7647;SDS011;3866;48.020;11.720;2022-09-16T05:43:50;8.93;;;7.13;;
7647;SDS011;3866;48.020;11.720;2022-09-16T05:46:17;12.63;;;7.60;;
7647;SDS011;3866;48.020;11.720;2022-09-16T05:48:45;8.77;;;7.33;;
7647;SDS011;3866;48.020;11.720;2022-09-16T05:51:13;8.80;;;7.43;;
7647;SDS011;3866;48.020;11.720;2022-09-16T05:53:44;9.40;;;7.97;;
7647;SDS011;3866;48.020;11.720;2022-09-16T05:56:13;8.53;;;7.40;;
7647;SDS011;3866;48.020;11.720;2022-09-16T05:58:41;9.33;;;7.30;;
7647;SDS011;3866;48.020;11.720;2022-09-16T06:01:11;7.73;;;6.93;;
7647;SDS011;3866;48.020;11.720;2022-09-16T06:03:40;11.60;;;8.20;;
7647;SDS011;3866;48.020;11.720;2022-09-16T06:06:10;12.37;;;8.83;;
7647;SDS011;3866;48.020;11.720;2022-09-16T06:08:39;10.53;;;7.43;;
7647;SDS011;3866;48.020;11.720;2022-09-16T06:11:08;9.83;;;7.50;;
7647;SDS011;3866;48.020;11.720;2022-09-16T06:13:36;9.37;;;7.60;;
7647;SDS011;3866;48.020;11.720;2022-09-16T06:16:04;11.67;;;7.90;;
7647;SDS011;3866;48.020;11.720;2022-09-16T06:18:35;11.73;;;7.60;;
7647;SDS011;3866;48.020;11.720;2022-09-16T06:21:03;9.93;;;7.10;;
7647;SDS011;3866;48.020;11.720;2022-09-16T06:23:31;8.47;;;7.17;;
7647;SDS011;3866;48.020;11.720;2022-09-16T06:25:59;10.43;;;7.30;;
7647;SDS011;3866;48.020;11.720;2022-09-16T06:28:28;19.47;;;9.20;;
7647;SDS011;3866;48.020;11.720;2022-09-16T06:31:05;8.67;;;7.63;;
7647;SDS011;3866;48.020;11.720;2022-09-16T06:33:34;7.73;;;6.93;;
7647;SDS011;3866;48.020;11.720;2022-09-16T06:36:02;11.93;;;7.07;;
7647;SDS011;3866;48.020;11.720;2022-09-16T06:38:29;8.63;;;7.20;;
7647;SDS011;3866;48.020;11.720;2022-09-16T06:40:57;8.97;;;7.10;;
7647;SDS011;3866;48.020;11.720;2022-09-16T06:43:25;8.17;;;7.30;;
7647;SDS011;3866;48.020;11.720;2022-09-16T06:45:56;8.80;;;6.70;;
7647;SDS011;3866;48.020;11.720;2022-09-16T06:48:23;8.90;;;6.63;;
7647;SDS011;3866;48.020;11.720;2022-09-16T06:50:56;7.63;;;6.83;;
7647;SDS011;3866;48.020;11.720;2022-09-16T06:53:24;9.23;;;6.67;;
7647;SDS011;3866;48.020;11.720;2022-09-16T06:55:51;8.20;;;7.30;;
7647;SDS011;3866;48.020;11.720;2022-09-16T06:58:18;8.57;;;7.23;;
7647;SDS011;3866;48.020;11.720;2022-09-16T07:00:45;7.27;;;6.37;;
7647;SDS011;3866;48.020;11.720;2022-09-16T07:03:13;9.03;;;7.80;;
7647;SDS011;3866;48.020;11.720;2022-09-16T07:05:40;10.87;;;7.60;;
7647;SDS011;3866;48.020;11.720;2022-09-16T07:08:07;8.30;;;7.43;;
7647;SDS011;3866;48.020;11.720;2022-09-16T07:10:34;10.50;;;7.63;;
7647;SDS011;3866;48.020;11.720;2022-09-16T07:13:02;10.23;;;8.23;;
7647;SDS011;3866;48.020;11.720;2022-09-16T07:15:30;10.43;;;7.90;;
7647;SDS011;3866;48.020;11.720;2022-09-16T07:17:56;11.97;;;10.33;;
7647;SDS011;3866;48.020;11.720;2022-09-16T07:20:25;10.03;;;8.17;;
7647;SDS011;3866;48.020;11.720;2022-09-16T07:22:52;10.13;;;7.40;;
7647;SDS011;3866;48.020;11.720;2022-09-16T07:25:19;10.57;;;8.03;;
7647;SDS011;3866;48.020;11.720;2022-09-16T07:27:45;12.47;;;8.33;;
7647;SDS011;3866;48.020;11.720;2022-09-16T07:30:12;11.20;;;8.33;;
7647;SDS011;3866;48.020;11.720;2022-09-16T07:32:39;12.37;;;8.30;;
7647;SDS011;3866;48.020;11.720;2022-09-16T07:35:09;10.43;;;8.47;;
7647;SDS011;3866;48.020;11.720;2022-09-16T07:37:37;12.07;;;8.77;;
7647;SDS011;3866;48.020;11.720;2022-09-16T07:40:05;9.37;;;8.30;;
7647;SDS011;3866;48.020;11.720;2022-09-16T07:42:32;12.97;;;8.43;;
7647;SDS011;3866;48.020;11.720;2022-09-16T07:44:59;9.93;;;7.67;;
7647;SDS011;3866;48.020;11.720;2022-09-16T07:47:26;11.87;;;8.00;;
7647;SDS011;3866;48.020;11.720;2022-09-16T07:49:53;10.40;;;8.33;;
7647;SDS011;3866;48.020;11.720;2022-09-16T07:52:21;10.93;;;8.70;;
7647;SDS011;3866;48.020;11.720;2022-09-16T07:54:51;11.17;;;8.27;;
7647;SDS011;3866;48.020;11.720;2022-09-16T07:57:18;10.83;;;9.00;;
7647;SDS011;3866;48.020;11.720;2022-09-16T07:59:45;11.43;;;8.23;;
7647;SDS011;3866;48.020;11.720;2022-09-16T08:02:13;10.43;;;8.77;;
7647;SDS011;3866;48.020;11.720;2022-09-16T08:04:41;11.43;;;8.47;;
7647;SDS011;3866;48.020;11.720;2022-09-16T08:07:08;17.40;;;10.67;;
7647;SDS011;3866;48.020;11.720;2022-09-16T08:09:35;12.43;;;8.80;;
7647;SDS011;3866;48.020;11.720;2022-09-16T08:12:04;12.47;;;9.37;;
7647;SDS011;3866;48.020;11.720;2022-09-16T08:14:34;12.50;;;9.57;;
7647;SDS011;3866;48.020;11.720;2022-09-16T08:17:02;12.40;;;9.23;;
7647;SDS011;3866;48.020;11.720;2022-09-16T08:19:29;11.63;;;8.50;;
7647;SDS011;3866;48.020;11.720;2022-09-16T08:21:56;10.40;;;8.90;;
7647;SDS011;3866;48.020;11.720;2022-09-16T08:24:23;11.93;;;8.80;;
7647;SDS011;3866;48.020;11.720;2022-09-16T08:26:50;10.77;;;9.63;;
7647;SDS011;3866;48.020;11.720;2022-09-16T08:29:19;12.10;;;9.70;;
7647;SDS011;3866;48.020;11.720;2022-09-16T08:31:46;11.37;;;10.17;;
7647;SDS011;3866;48.020;11.720;2022-09-16T08:34:13;11.53;;;9.70;;
7647;SDS011;3866;48.020;11.720;2022-09-16T08:36:40;14.53;;;9.03;;
7647;SDS011;3866;48.020;11.720;2022-09-16T08:39:08;13.07;;;8.47;;
7647;SDS011;3866;48.020;11.720;2022-09-16T08:41:42;10.47;;;9.33;;
7647;SDS011;3866;48.020;11.720;2022-09-16T08:44:29;13.70;;;9.70;;
7647;SDS011;3866;48.020;11.720;2022-09-16T08:47:03;10.37;;;9.23;;
7647;SDS011;3866;48.020;11.720;2022-09-16T08:49:35;11.40;;;9.77;;
7647;SDS011;3866;48.020;11.720;2022-09-16T08:52:07;12.73;;;9.57;;
7647;SDS011;3866;48.020;11.720;2022-09-16T08:54:39;14.33;;;10.60;;
7647;SDS011;3866;48.020;11.720;2022-09-16T08:57:10;12.90;;;9.80;;
7647;SDS011;3866;48.020;11.720;2022-09-16T08:59:43;13.47;;;9.10;;
7647;SDS011;3866;48.020;11.720;2022-09-16T09:02:19;11.30;;;8.70;;
7647;SDS011;3866;48.020;11.720;2022-09-16T09:05:05;10.60;;;9.00;;
7647;SDS011;3866;48.020;11.720;2022-09-16T09:07:41;9.73;;;8.73;;
7647;SDS011;3866;48.020;11.720;2022-09-16T09:10:20;14.87;;;9.93;;
7647;SDS011;3866;48.020;11.720;2022-09-16T09:12:52;9.90;;;8.60;;
7647;SDS011;3866;48.020;11.720;2022-09-16T09:15:31;10.40;;;8.60;;
7647;SDS011;3866;48.020;11.720;2022-09-16T09:18:15;9.73;;;7.87;;
7647;SDS011;3866;48.020;11.720;2022-09-16T09:20:55;10.07;;;7.83;;
7647;SDS011;3866;48.020;11.720;2022-09-16T09:23:39;11.40;;;8.57;;
7647;SDS011;3866;48.020;11.720;2022-09-16T09:26:18;10.73;;;8.23;;
7647;SDS011;3866;48.020;11.720;2022-09-16T09:29:01;11.53;;;8.23;;
7647;SDS011;3866;48.020;11.720;2022-09-16T09:31:37;11.70;;;8.50;;
7647;SDS011;3866;48.020;11.720;2022-09-16T09:34:16;10.27;;;8.33;;
7647;SDS011;3866;48.020;11.720;2022-09-16T09:37:02;10.20;;;8.50;;
7647;SDS011;3866;48.020;11.720;2022-09-16T09:39:44;11.27;;;8.30;;
7647;SDS011;3866;48.020;11.720;2022-09-16T09:42:21;8.67;;;7.63;;
7647;SDS011;3866;48.020;11.720;2022-09-16T09:44:54;9.20;;;7.10;;
7647;SDS011;3866;48.020;11.720;2022-09-16T09:47:26;8.97;;;7.70;;
7647;SDS011;3866;48.020;11.720;2022-09-16T09:50:02;10.03;;;8.40;;
7647;SDS011;3866;48.020;11.720;2022-09-16T09:52:40;11.63;;;8.97;;
7647;SDS011;3866;48.020;11.720;2022-09-16T09:55:14;11.97;;;8.30;;
7647;SDS011;3866;48.020;11.720;2022-09-16T09:57:47;13.43;;;9.83;;
7647;SDS011;3866;48.020;11.720;2022-09-16T10:00:37;11.33;;;8.73;;
7647;SDS011;3866;48.020;11.720;2022-09-16T10:03:06;9.23;;;8.13;;
7647;SDS011;3866;48.020;11.720;2022-09-16T10:05:37;9.67;;;8.30;;
7647;SDS011;3866;48.020;11.720;2022-09-16T10:08:08;8.60;;;7.57;;
7647;SDS011;3866;48.020;11.720;2022-09-16T10:10:46;10.00;;;8.10;;
7647;SDS011;3866;48.020;11.720;2022-09-16T10:13:15;11.40;;;8.20;;
7647;SDS011;3866;48.020;11.720;2022-09-16T10:15:43;18.17;;;8.90;;
7647;SDS011;3866;48.020;11.720;2022-09-16T10:18:13;11.83;;;7.53;;
7647;SDS011;3866;48.020;11.720;2022-09-16T10:20:54;10.03;;;8.07;;
7647;SDS011;3866;48.020;11.720;2022-09-16T10:23:24;9.47;;;8.37;;
7647;SDS011;3866;48.020;11.720;2022-09-16T10:26:02;10.57;;;7.90;;
7647;SDS011;3866;48.020;11.720;2022-09-16T10:28:30;10.33;;;8.70;;
7647;SDS011;3866;48.020;11.720;2022-09-16T10:30:58;10.23;;;9.00;;
7647;SDS011;3866;48.020;11.720;2022-09-16T10:33:28;13.83;;;9.07;;
7647;SDS011;3866;48.020;11.720;2022-09-16T10:35:58;14.90;;;9.13;;
7647;SDS011;3866;48.020;11.720;2022-09-16T10:38:33;11.90;;;8.70;;
7647;SDS011;3866;48.020;11.720;2022-09-16T10:41:03;10.47;;;9.13;;
7647;SDS011;3866;48.020;11.720;2022-09-16T10:43:34;14.40;;;10.17;;
7647;SDS011;3866;48.020;11.720;2022-09-16T10:46:04;13.53;;;10.40;;
7647;SDS011;3866;48.020;11.720;2022-09-16T10:48:33;16.33;;;11.30;;
7647;SDS011;3866;48.020;11.720;2022-09-16T10:51:02;15.20;;;11.70;;
7647;SDS011;3866;48.020;11.720;2022-09-16T10:53:31;13.17;;;10.03;;
7647;SDS011;3866;48.020;11.720;2022-09-16T10:55:59;16.37;;;10.70;;
7647;SDS011;3866;48.020;11.720;2022-09-16T10:58:27;13.57;;;10.23;;
7647;SDS011;3866;48.020;11.720;2022-09-16T11:00:57;12.13;;;9.77;;
7647;SDS011;3866;48.020;11.720;2022-09-16T11:03:47;13.63;;;10.23;;
7647;SDS011;3866;48.020;11.720;2022-09-16T11:06:35;13.43;;;10.90;;
7647;SDS011;3866;48.020;11.720;2022-09-16T11:09:26;9.83;;;8.60;;
7647;SDS011;3866;48.020;11.720;2022-09-16T11:12:08;11.93;;;8.87;;
7647;SDS011;3866;48.020;11.720;2022-09-16T11:14:54;13.10;;;9.57;;
7647;SDS011;3866;48.020;11.720;2022-09-16T11:17:33;11.97;;;10.77;;
7647;SDS011;3866;48.020;11.720;2022-09-16T11:20:32;13.03;;;10.33;;
7647;SDS011;3866;48.020;11.720;2022-09-16T11:23:12;11.70;;;10.37;;
7647;SDS011;3866;48.020;11.720;2022-09-16T11:25:53;11.27;;;9.67;;
7647;SDS011;3866;48.020;11.720;2022-09-16T11:28:32;13.10;;;9.33;;
7647;SDS011;3866;48.020;11.720;2022-09-16T11:31:19;13.00;;;9.87;;
7647;SDS011;3866;48.020;11.720;2022-09-16T11:33:59;11.07;;;8.93;;
7647;SDS011;3866;48.020;11.720;2022-09-16T11:36:35;10.67;;;8.93;;
7647;SDS011;3866;48.020;11.720;2022-09-16T11:39:11;12.23;;;8.53;;
7647;SDS011;3866;48.020;11.720;2022-09-16T11:41:46;9.47;;;8.30;;
7647;SDS011;3866;48.020;11.720;2022-09-16T11:44:22;8.90;;;7.73;;
7647;SDS011;3866;48.020;11.720;2022-09-16T11:47:00;9.70;;;7.60;;
7647;SDS011;3866;48.020;11.720;2022-09-16T11:49:48;10.07;;;7.20;;
7647;SDS011;3866;48.020;11.720;2022-09-16T11:52:31;7.50;;;6.50;;
7647;SDS011;3866;48.020;11.720;2022-09-16T11:55:18;9.33;;;7.37;;
7647;SDS011;3866;48.020;11.720;2022-09-16T11:57:56;10.77;;;7.87;;
7647;SDS011;3866;48.020;11.720;2022-09-16T12:00:25;9.67;;;7.30;;
7647;SDS011;3866;48.020;11.720;2022-09-16T12:02:55;11.40;;;7.37;;
7647;SDS011;3866;48.020;11.720;2022-09-16T12:05:28;10.13;;;7.60;;
7647;SDS011;3866;48.020;11.720;2022-09-16T12:08:02;10.03;;;8.67;;
7647;SDS011;3866;48.020;11.720;2022-09-16T12:10:36;10.27;;;8.57;;
7647;SDS011;3866;48.020;11.720;2022-09-16T12:13:08;9.40;;;7.87;;
7647;SDS011;3866;48.020;11.720;2022-09-16T12:15:40;9.53;;;7.97;;
7647;SDS011;3866;48.020;11.720;2022-09-16T12:18:12;10.67;;;6.70;;
7647;SDS011;3866;48.020;11.720;2022-09-16T12:20:44;7.93;;;6.47;;
7647;SDS011;3866;48.020;11.720;2022-09-16T12:23:17;7.10;;;6.33;;
7647;SDS011;3866;48.020;11.720;2022-09-16T12:25:50;6.80;;;6.00;;
7647;SDS011;3866;48.020;11.720;2022-09-16T12:28:30;8.83;;;6.77;;
7647;SDS011;3866;48.020;11.720;2022-09-16T12:31:03;8.73;;;6.37;;
7647;SDS011;3866;48.020;11.720;2022-09-16T12:33:39;8.20;;;5.77;;
7647;SDS011;3866;48.020;11.720;2022-09-16T12:36:10;6.53;;;4.87;;
7647;SDS011;3866;48.020;11.720;2022-09-16T12:38:40;5.37;;;4.27;;
7647;SDS011;3866;48.020;11.720;2022-09-16T12:41:11;4.53;;;4.13;;
7647;SDS011;3866;48.020;11.720;2022-09-16T12:43:56;4.57;;;4.07;;
7647;SDS011;3866;48.020;11.720;2022-09-16T12:46:42;5.83;;;4.70;;
7647;SDS011;3866;48.020;11.720;2022-09-16T12:49:39;5.50;;;5.00;;
7647;SDS011;3866;48.020;11.720;2022-09-16T12:55:42;5.30;;;4.10;;
7647;SDS011;3866;48.020;11.720;2022-09-16T13:01:21;5.23;;;4.40;;
7647;SDS011;3866;48.020;11.720;2022-09-16T13:03:52;8.03;;;4.97;;
7647;SDS011;3866;48.020;11.720;2022-09-16T13:06:22;22.77;;;5.20;;
7647;SDS011;3866;48.020;11.720;2022-09-16T13:08:51;6.90;;;5.67;;
7647;SDS011;3866;48.020;11.720;2022-09-16T13:11:21;8.20;;;5.70;;
7647;SDS011;3866;48.020;11.720;2022-09-16T13:13:52;4.93;;;4.43;;
7647;SDS011;3866;48.020;11.720;2022-09-16T13:16:31;6.43;;;5.83;;
7647;SDS011;3866;48.020;11.720;2022-09-16T13:19:18;6.00;;;5.40;;
7647;SDS011;3866;48.020;11.720;2022-09-16T13:21:54;6.23;;;5.27;;
7647;SDS011;3866;48.020;11.720;2022-09-16T13:24:26;6.00;;;4.93;;
7647;SDS011;3866;48.020;11.720;2022-09-16T13:26:57;7.17;;;4.77;;
7647;SDS011;3866;48.020;11.720;2022-09-16T13:29:38;8.00;;;5.33;;
7647;SDS011;3866;48.020;11.720;2022-09-16T13:32:23;6.30;;;4.50;;
7647;SDS011;3866;48.020;11.720;2022-09-16T13:35:01;5.47;;;4.00;;
7647;SDS011;3866;48.020;11.720;2022-09-16T13:37:29;6.00;;;3.30;;
7647;SDS011;3866;48.020;11.720;2022-09-16T13:40:06;5.30;;;3.33;;
7647;SDS011;3866;48.020;11.720;2022-09-16T13:42:36;5.10;;;3.80;;
7647;SDS011;3866;48.020;11.720;2022-09-16T13:45:03;6.97;;;3.40;;
7647;SDS011;3866;48.020;11.720;2022-09-16T13:47:50;8.00;;;4.27;;
7647;SDS011;3866;48.020;11.720;2022-09-16T13:50:18;4.17;;;3.27;;
7647;SDS011;3866;48.020;11.720;2022-09-16T13:52:49;4.00;;;3.00;;
7647;SDS011;3866;48.020;11.720;2022-09-16T13:55:18;5.00;;;3.40;;
7647;SDS011;3866;48.020;11.720;2022-09-16T13:57:52;3.93;;;3.10;;
7647;SDS011;3866;48.020;11.720;2022-09-16T14:00:24;4.07;;;3.33;;
7647;SDS011;3866;48.020;11.720;2022-09-16T14:02:56;3.60;;;3.30;;
7647;SDS011;3866;48.020;11.720;2022-09-16T14:05:44;3.87;;;3.00;;
7647;SDS011;3866;48.020;11.720;2022-09-16T14:08:25;3.40;;;3.10;;
7647;SDS011;3866;48.020;11.720;2022-09-16T14:10:59;5.53;;;3.33;;
7647;SDS011;3866;48.020;11.720;2022-09-16T14:13:35;3.43;;;3.03;;
7647;SDS011;3866;48.020;11.720;2022-09-16T14:16:08;3.57;;;2.90;;
7647;SDS011;3866;48.020;11.720;2022-09-16T14:18:39;5.13;;;3.60;;
7647;SDS011;3866;48.020;11.720;2022-09-16T14:21:15;4.30;;;3.23;;
7647;SDS011;3866;48.020;11.720;2022-09-16T14:23:44;3.70;;;3.40;;
7647;SDS011;3866;48.020;11.720;2022-09-16T14:26:12;5.67;;;4.30;;
7647;SDS011;3866;48.020;11.720;2022-09-16T14:28:42;5.27;;;4.00;;
7647;SDS011;3866;48.020;11.720;2022-09-16T14:31:13;5.33;;;3.90;;
7647;SDS011;3866;48.020;11.720;2022-09-16T14:33:47;5.27;;;4.10;;
7647;SDS011;3866;48.020;11.720;2022-09-16T14:36:18;5.60;;;4.40;;
7647;SDS011;3866;48.020;11.720;2022-09-16T14:38:52;4.97;;;3.97;;
7647;SDS011;3866;48.020;11.720;2022-09-16T14:41:22;3.90;;;3.17;;
7647;SDS011;3866;48.020;11.720;2022-09-16T14:43:53;4.30;;;3.90;;
7647;SDS011;3866;48.020;11.720;2022-09-16T14:46:25;4.33;;;3.43;;
7647;SDS011;3866;48.020;11.720;2022-09-16T14:48:52;4.63;;;3.63;;
7647;SDS011;3866;48.020;11.720;2022-09-16T14:51:20;4.70;;;3.80;;
7647;SDS011;3866;48.020;11.720;2022-09-16T14:53:52;6.53;;;4.43;;
7647;SDS011;3866;48.020;11.720;2022-09-16T14:56:21;5.47;;;4.30;;
7647;SDS011;3866;48.020;11.720;2022-09-16T14:58:48;4.10;;;3.70;;
7647;SDS011;3866;48.020;11.720;2022-09-16T15:01:19;4.20;;;3.80;;
7647;SDS011;3866;48.020;11.720;2022-09-16T15:03:51;4.00;;;3.40;;
7647;SDS011;3866;48.020;11.720;2022-09-16T15:06:21;4.23;;;3.67;;
7647;SDS011;3866;48.020;11.720;2022-09-16T15:08:51;4.50;;;3.87;;
7647;SDS011;3866;48.020;11.720;2022-09-16T15:11:23;4.30;;;3.90;;
7647;SDS011;3866;48.020;11.720;2022-09-16T15:13:53;4.07;;;3.50;;
7647;SDS011;3866;48.020;11.720;2022-09-16T15:16:21;5.47;;;3.60;;
7647;SDS011;3866;48.020;11.720;2022-09-16T15:18:51;3.87;;;3.57;;
7647;SDS011;3866;48.020;11.720;2022-09-16T15:21:21;3.47;;;3.17;;
7647;SDS011;3866;48.020;11.720;2022-09-16T15:23:52;7.17;;;4.00;;
7647;SDS011;3866;48.020;11.720;2022-09-16T15:26:20;4.40;;;3.93;;
7647;SDS011;3866;48.020;11.720;2022-09-16T15:28:53;4.63;;;4.23;;
7647;SDS011;3866;48.020;11.720;2022-09-16T15:31:27;5.17;;;4.03;;
7647;SDS011;3866;48.020;11.720;2022-09-16T15:33:56;5.13;;;3.83;;
7647;SDS011;3866;48.020;11.720;2022-09-16T15:36:31;4.20;;;3.80;;
7647;SDS011;3866;48.020;11.720;2022-09-16T15:38:59;4.67;;;3.70;;